CheckWX is a tool to help pilots better visualize weather data.  It is not intended as a substitute for an official pre-flight weather briefing.

18:01:30 UTC

EGVA METAR
RAF Fairford Airport
Fairford, United Kingdom
Current

1 hour ago

EGVA 171656Z AUTO 21015G20KT M M CLR 11/07 A2989 RMK AO2 SLP127 T01090066 RVRNO $
Observed
Feb-17 @ 16:56 UTC
Wind
  • 210° at 15 KTS
  • Gusting to 20 KTS
Visibility
Cloud Levels
  • Clear skies
Temperature
11°C / 52°F
Dewpoint
C / 45°F
Humidity
77%
Altimeter
29.89" Hg
Pressure
1012.7 hPa
Previous

2 hours ago

EGVA 171556Z AUTO 21014KT M M FEW030 SCT038 12/08 A2989 RMK AO2 SLP126 T01190078 RVRNO $
Observed
Feb-17 @ 15:56 UTC
Wind
  • 210° at 14 KTS
Visibility
Cloud Levels
  • Few at 3,000' AGL
  • Scattered at 3,800' AGL
Temperature
12°C / 54°F
Dewpoint
C / 46°F
Humidity
77%
Altimeter
29.89" Hg
Pressure
1012.6 hPa
Previous

3 hours ago

EGVA 171531Z AUTO 20015G19KT M M FEW020 SCT043 12/08 A2989 RMK AO2 SLP126 RVRNO $
Observed
Feb-17 @ 15:31 UTC
Wind
  • 200° at 15 KTS
  • Gusting to 19 KTS
Visibility
Cloud Levels
  • Few at 2,000' AGL
  • Scattered at 4,300' AGL
Temperature
12°C / 54°F
Dewpoint
C / 46°F
Humidity
77%
Altimeter
29.89" Hg
Pressure
1012.6 hPa